Time;durP1;ratioP1;P1;durP2;ratioP2;P2;SDS_P1;SDS_P2;PMS_P1;PMS_P2;Temp;Humidity;BMP_temperature;BMP_pressure;BME280_temperature;BME280_humidity;BME280_pressure;Samples;Min_cycle;Max_cycle;Signal;HPM_P1;HPM_P2
2023/08/17 00:01:39;;;;;;;0.10;0.10;;;;;;;;;;4997303;28;20022;-91
2023/08/17 00:04:04;;;;;;;0.10;0.10;;;;;;;;;;4994533;28;20054;-90
2023/08/17 00:06:29;;;;;;;0.10;0.10;;;;;;;;;;4992113;28;20045;-89
2023/08/17 00:08:55;;;;;;;0.10;0.10;;;;;;;;;;4988405;28;20121;-88
2023/08/17 00:11:20;;;;;;;0.10;0.10;;;;;;;;;;4979146;28;20039;-87
2023/08/17 00:13:45;;;;;;;0.10;0.10;;;;;;;;;;4977861;28;20125;-87
2023/08/17 00:16:10;;;;;;;0.10;0.10;;;;;;;;;;4977781;28;20034;-87
2023/08/17 00:18:35;;;;;;;0.10;0.10;;;;;;;;;;4978580;28;20039;-88
2023/08/17 00:21:01;;;;;;;0.10;0.10;;;;;;;20.06;nan;100475.19;4978950;28;20042;-86
2023/08/17 00:23:26;;;;;;;0.10;0.10;;;;;;;;;;4977081;28;20035;-87
2023/08/17 00:25:51;;;;;;;0.10;0.10;;;;;;;;;;4976048;28;20117;-88
2023/08/17 00:28:16;;;;;;;0.10;0.10;;;;;;;20.04;nan;100450.41;4976901;28;20480;-88
2023/08/17 00:30:41;;;;;;;0.10;0.10;;;;;;;20.02;nan;100479.34;4967552;28;20382;-87
2023/08/17 00:33:07;;;;;;;0.10;0.10;;;;;;;;;;4959367;28;20035;-87
2023/08/17 00:35:32;;;;;;;0.10;0.10;;;;;;;;;;4976747;28;20512;-88
2023/08/17 00:37:58;;;;;;;0.10;0.10;;;;;;;19.91;nan;100469.28;4975303;28;20504;-86
2023/08/17 00:40:23;;;;;;;0.10;0.10;;;;;;;;;;4977194;28;20101;-87
2023/08/17 00:42:49;;;;;;;0.10;0.10;;;;;;;;;;4976824;28;20074;-87
2023/08/17 00:45:14;;;;;;;0.10;0.10;;;;;;;;;;4966055;28;20035;-88
2023/08/17 00:47:40;;;;;;;0.10;0.10;;;;;;;19.90;nan;100455.06;4957479;29;20121;-87
2023/08/17 00:50:05;;;;;;;0.10;0.10;;;;;;;;;;4959431;28;20043;-87
2023/08/17 00:52:31;;;;;;;0.10;0.10;;;;;;;;;;4958017;28;20047;-88
2023/08/17 00:54:57;;;;;;;0.10;0.10;;;;;;;19.82;nan;100490.19;4956573;28;20035;-87
2023/08/17 00:57:23;;;;;;;0.03;0.03;;;;;;;;;;4959496;28;20054;-88
2023/08/17 00:59:48;;;;;;;0.10;0.10;;;;;;;;;;4957762;29;20047;-86
2023/08/17 01:02:13;;;;;;;0.10;0.10;;;;;;;19.80;nan;100551.28;4957246;28;20027;-86
2023/08/17 01:04:38;;;;;;;0.10;0.10;;;;;;;;;;4959786;28;20449;-85
2023/08/17 01:07:03;;;;;;;0.10;0.10;;;;;;;;;;4959660;28;20046;-87
2023/08/17 01:09:29;;;;;;;0.10;0.10;;;;;;;;;;4975562;28;20516;-86
2023/08/17 01:12:00;;;;;;;0.10;0.10;;;;;;;;;;4975387;28;20138;-87
2023/08/17 01:14:30;;;;;;;;;;;;;;;19.64;nan;100457.81;4976610;28;20031;-88
2023/08/17 01:16:59;;;;;;;0.10;0.10;;;;;;;;;;4988273;28;19914;-86
2023/08/17 01:19:26;;;;;;;0.10;0.10;;;;;;;;;;4987368;28;20086;-87
2023/08/17 01:21:56;;;;;;;0.10;0.10;;;;;;;19.51;nan;100407.75;4970133;28;20122;-83
2023/08/17 01:24:22;;;;;;;0.10;0.10;;;;;;;;;;4967505;28;20039;-83
2023/08/17 01:26:47;;;;;;;0.10;0.10;;;;;;;19.45;nan;100457.69;4968558;28;20034;-83
2023/08/17 01:29:12;;;;;;;0.10;0.10;;;;;;;;;;4973621;28;20039;-83
2023/08/17 01:31:42;;;;;;;0.10;0.10;;;;;;;;;;4974396;28;20593;-84
2023/08/17 01:34:18;;;;;;;0.10;0.10;;;;;;;19.50;nan;100449.03;4976306;28;20043;-83
2023/08/17 01:36:46;;;;;;;;;;;;;;;19.48;nan;100440.38;4988935;28;20337;-83
2023/08/17 01:39:12;;;;;;;0.10;0.10;;;;;;;;;;4968762;28;19941;-83
2023/08/17 01:41:38;;;;;;;0.10;0.10;;;;;;;;;;4980469;28;20439;-83
2023/08/17 01:44:04;;;;;;;0.10;0.10;;;;;;;;;;4977222;28;20027;-85
2023/08/17 01:46:31;;;;;;;0.10;0.10;;;;;;;;;;4975022;28;20135;-85
2023/08/17 01:48:56;;;;;;;0.00;0.00;;;;;;;;;;4975917;28;20774;-84
2023/08/17 01:51:21;;;;;;;0.10;0.10;;;;;;;;;;4967730;28;20037;-85
2023/08/17 01:53:46;;;;;;;0.10;0.10;;;;;;;;;;4961060;28;20541;-85
2023/08/17 01:56:12;;;;;;;0.10;0.10;;;;;;;;;;4955914;28;20298;-85
2023/08/17 01:58:37;;;;;;;0.00;0.00;;;;;;;;;;4954862;28;20401;-85
2023/08/17 02:01:02;;;;;;;0.10;0.10;;;;;;;;;;4957006;28;20433;-84
2023/08/17 02:03:28;;;;;;;0.10;0.10;;;;;;;;;;4954602;28;20130;-84
2023/08/17 02:05:56;;;;;;;0.10;0.10;;;;;;;19.76;nan;100418.59;4956181;28;20117;-85
2023/08/17 02:08:21;;;;;;;0.10;0.10;;;;;;;19.73;nan;100529.00;4971305;28;20038;-85
2023/08/17 02:10:46;;;;;;;0.03;0.03;;;;;;;19.71;nan;100424.59;4970462;28;20441;-85
2023/08/17 02:13:12;;;;;;;0.10;0.10;;;;;;;;;;4974430;28;20413;-85
2023/08/17 02:15:40;;;;;;;0.10;0.10;;;;;;;;;;4975457;28;20414;-85
2023/08/17 02:18:05;;;;;;;0.10;0.10;;;;;;;;;;4974921;28;20039;-85
2023/08/17 02:20:30;;;;;;;0.00;0.00;;;;;;;;;;4974806;28;20396;-85
2023/08/17 02:22:55;;;;;;;0.03;0.03;;;;;;;;;;4974273;28;20461;-85
2023/08/17 02:25:21;;;;;;;0.10;0.10;;;;;;;19.54;nan;100391.22;4966034;28;20105;-85
2023/08/17 02:27:46;;;;;;;0.10;0.10;;;;;;;;;;4974041;28;20030;-85
2023/08/17 02:30:12;;;;;;;0.10;0.10;;;;;;;19.30;nan;100396.28;4970202;28;20337;-85
2023/08/17 02:32:37;;;;;;;0.10;0.10;;;;;;;;;;4957381;28;20066;-85
2023/08/17 02:35:02;;;;;;;0.10;0.10;;;;;;;19.06;nan;100485.44;4962636;28;20501;-85
2023/08/17 02:37:28;;;;;;;0.10;0.10;;;;;;;;;;4982374;28;20034;-85
2023/08/17 02:39:53;;;;;;;0.00;0.00;;;;;;;;;;4975260;28;20451;-85
2023/08/17 02:42:18;;;;;;;0.00;0.00;;;;;;;18.87;nan;100407.53;4975088;28;20047;-84
2023/08/17 02:44:43;;;;;;;0.10;0.10;;;;;;;;;;4974243;28;20031;-85
2023/08/17 02:47:09;;;;;;;0.10;0.10;;;;;;;;;;4973576;28;20042;-85
2023/08/17 02:49:35;;;;;;;0.10;0.10;;;;;;;;;;4971913;28;20494;-85
2023/08/17 02:52:00;;;;;;;0.10;0.10;;;;;;;;;;4964316;28;20554;-85
2023/08/17 02:54:25;;;;;;;0.10;0.10;;;;;;;;;;4954011;28;20126;-85
2023/08/17 02:56:50;;;;;;;0.10;0.10;;;;;;;;;;4953936;29;20331;-84
2023/08/17 02:59:15;;;;;;;0.10;0.10;;;;;;;;;;4953865;29;20035;-85
2023/08/17 03:01:41;;;;;;;0.10;0.10;;;;;;;18.36;nan;100434.94;4953993;29;20524;-84
2023/08/17 03:04:06;;;;;;;0.10;0.10;;;;;;;;;;4954578;28;20062;-85
2023/08/17 03:06:31;;;;;;;0.10;0.10;;;;;;;18.23;nan;100445.63;4963694;28;20696;-85
2023/08/17 03:08:56;;;;;;;0.10;0.10;;;;;;;;;;4971427;28;20058;-84
2023/08/17 03:11:21;;;;;;;0.13;0.13;;;;;;;;;;4974877;28;20283;-85
2023/08/17 03:13:48;;;;;;;0.10;0.10;;;;;;;18.07;nan;100460.25;4975497;28;20408;-85
2023/08/17 03:16:13;;;;;;;0.10;0.10;;;;;;;;;;4973598;28;20058;-84
2023/08/17 03:18:38;;;;;;;0.10;0.10;;;;;;;;;;4974416;28;20046;-85
2023/08/17 03:21:03;;;;;;;0.10;0.10;;;;;;;;;;4973488;28;20046;-85
2023/08/17 03:23:28;;;;;;;0.10;0.10;;;;;;;;;;4969260;28;20032;-84
2023/08/17 03:25:54;;;;;;;0.10;0.10;;;;;;;17.92;nan;100398.84;4970753;28;20409;-84
2023/08/17 03:28:19;;;;;;;0.10;0.10;;;;;;;;;;4973673;28;20031;-85
2023/08/17 03:30:44;;;;;;;0.10;0.10;;;;;;;17.88;nan;100408.34;4966756;28;20047;-84
2023/08/17 03:33:10;;;;;;;0.10;0.10;;;;;;;17.86;nan;100407.72;4955939;28;20094;-85
2023/08/17 03:35:35;;;;;;;;;;;;;;;;;;4954886;28;20408;-85
2023/08/17 03:38:00;;;;;;;;;;;;;;;;;;4954144;29;20395;-85
2023/08/17 03:40:25;;;;;;;0.10;0.10;;;;;;;;;;4968356;28;19934;-84
2023/08/17 03:42:50;;;;;;;0.10;0.10;;;;;;;17.71;nan;100397.16;4968415;28;20041;-84
2023/08/17 03:45:15;;;;;;;;;;;;;;;17.71;nan;100415.03;4975242;28;20035;-85
2023/08/17 03:47:41;;;;;;;0.10;0.10;;;;;;;17.70;nan;100416.06;4974297;28;19925;-84
2023/08/17 03:50:06;;;;;;;0.10;0.10;;;;;;;17.69;nan;100404.56;4962261;28;20037;-85
2023/08/17 03:52:32;;;;;;;0.10;0.10;;;;;;;17.72;nan;100419.38;4974471;28;20035;-85
2023/08/17 03:54:57;;;;;;;0.10;0.10;;;;;;;;;;4974307;28;20027;-85
2023/08/17 03:57:22;;;;;;;0.10;0.10;;;;;;;;;;4975238;28;20565;-85
2023/08/17 03:59:47;;;;;;;0.10;0.10;;;;;;;17.90;nan;100381.38;4973545;28;20097;-85
2023/08/17 04:02:12;;;;;;;0.10;0.10;;;;;;;17.93;nan;100545.00;4972653;28;20034;-85
2023/08/17 04:04:38;;;;;;;0.10;0.10;;;;;;;17.92;nan;100472.94;4973432;28;20429;-84
2023/08/17 04:07:03;;;;;;;0.10;0.10;;;;;;;17.93;nan;100518.22;4973265;28;20047;-85
2023/08/17 04:09:28;;;;;;;0.10;0.10;;;;;;;;;;4973161;28;20125;-86
2023/08/17 04:11:54;;;;;;;0.10;0.10;;;;;;;;;;4974680;28;20035;-85
2023/08/17 04:14:20;;;;;;;0.10;0.10;;;;;;;;;;4965941;28;20345;-85
2023/08/17 04:16:45;;;;;;;0.10;0.10;;;;;;;;;;4975109;28;20038;-85
2023/08/17 04:19:10;;;;;;;0.10;0.10;;;;;;;18.08;nan;100498.53;4974140;28;20116;-85
2023/08/17 04:21:35;;;;;;;0.10;0.10;;;;;;;;;;4972458;28;20117;-86
2023/08/17 04:24:01;;;;;;;0.10;0.10;;;;;;;18.08;nan;100418.25;4972443;28;20035;-85
2023/08/17 04:26:26;;;;;;;0.10;0.10;;;;;;;;;;4973466;28;20050;-85
2023/08/17 04:28:51;;;;;;;0.10;0.10;;;;;;;18.08;nan;100482.47;4972541;28;20109;-85
2023/08/17 04:31:17;;;;;;;0.10;0.10;;;;;;;;;;4968901;28;20038;-85
2023/08/17 04:33:42;;;;;;;0.10;0.10;;;;;;;18.12;nan;100489.06;4956427;29;20361;-86
2023/08/17 04:36:07;;;;;;;0.10;0.10;;;;;;;;;;4955671;28;20122;-85
2023/08/17 04:38:32;;;;;;;0.10;0.10;;;;;;;;;;4955583;29;20050;-86
2023/08/17 04:40:58;;;;;;;0.10;0.10;;;;;;;;;;4957220;28;20125;-84
2023/08/17 04:43:23;;;;;;;0.10;0.10;;;;;;;;;;4954347;28;20059;-85
2023/08/17 04:45:48;;;;;;;0.10;0.10;;;;;;;;;;4953822;28;20398;-86
2023/08/17 04:48:14;;;;;;;0.10;0.10;;;;;;;;;;4963291;28;20419;-84
2023/08/17 04:50:39;;;;;;;0.10;0.10;;;;;;;18.41;nan;100435.16;4964120;28;20035;-86
2023/08/17 04:53:04;;;;;;;0.00;0.00;;;;;;;;;;4968201;28;20044;-85
2023/08/17 04:55:31;;;;;;;0.10;0.10;;;;;;;;;;4952291;29;20312;-86
2023/08/17 04:57:57;;;;;;;0.17;0.17;;;;;;;18.46;nan;100507.66;4954059;28;20298;-86
2023/08/17 05:00:27;;;;;;;0.10;0.10;;;;;;;18.53;nan;100454.09;4951805;28;20450;-85
2023/08/17 05:02:52;;;;;;;0.10;0.10;;;;;;;;;;4959499;28;20035;-85
2023/08/17 05:05:18;;;;;;;0.10;0.10;;;;;;;;;;4964581;28;20035;-85
2023/08/17 05:07:43;;;;;;;0.10;0.10;;;;;;;;;;4972954;28;20035;-84
2023/08/17 05:10:08;;;;;;;0.10;0.10;;;;;;;18.62;nan;100415.38;4973394;28;20043;-85
2023/08/17 05:12:34;;;;;;;0.10;0.10;;;;;;;;;;4972424;28;20035;-85
2023/08/17 05:14:59;;;;;;;0.00;0.00;;;;;;;;;;4978186;28;20483;-87
2023/08/17 05:17:24;;;;;;;0.00;0.00;;;;;;;;;;4984608;28;20412;-86
2023/08/17 05:19:49;;;;;;;0.10;0.10;;;;;;;18.90;nan;100465.22;4978759;28;20090;-86
2023/08/17 05:22:15;;;;;;;0.10;0.10;;;;;;;;;;4990742;28;20038;-86
2023/08/17 05:24:40;;;;;;;0.10;0.10;;;;;;;;;;4958042;28;20039;-86
2023/08/17 05:27:05;;;;;;;0.10;0.10;;;;;;;;;;4957912;28;20039;-86
2023/08/17 05:29:32;;;;;;;0.10;0.10;;;;;;;;;;4956497;28;20058;-86
2023/08/17 05:31:57;;;;;;;0.10;0.10;;;;;;;;;;4971063;28;20082;-86
2023/08/17 05:34:22;;;;;;;0.10;0.10;;;;;;;;;;4975064;28;20039;-86
2023/08/17 05:36:48;;;;;;;0.10;0.10;;;;;;;;;;4973303;28;20542;-86
2023/08/17 05:39:13;;;;;;;0.10;0.10;;;;;;;;;;4966781;28;20126;-86
2023/08/17 05:41:38;;;;;;;0.10;0.10;;;;;;;;;;4973846;28;20050;-86
2023/08/17 05:44:06;;;;;;;0.10;0.10;;;;;;;18.74;nan;100455.75;4972947;28;20533;-86
2023/08/17 05:46:31;;;;;;;0.10;0.10;;;;;;;18.79;nan;100490.81;4972851;28;20396;-86
2023/08/17 05:48:58;;;;;;;0.10;0.10;;;;;;;18.91;nan;100503.59;4973250;28;20126;-87
2023/08/17 05:51:23;;;;;;;0.10;0.10;;;;;;;;;;4957613;28;20520;-86
2023/08/17 05:53:49;;;;;;;0.10;0.10;;;;;;;19.21;nan;100487.88;4966119;28;20046;-86
2023/08/17 05:56:14;;;;;;;0.10;0.10;;;;;;;19.30;nan;100497.34;4969701;28;20491;-88
2023/08/17 05:58:39;;;;;;;0.10;0.10;;;;;;;;;;4981191;28;20500;-87
2023/08/17 06:01:09;;;;;;;0.10;0.10;;;;;;;19.45;nan;100548.03;4980047;28;20049;-87
2023/08/17 06:03:36;;;;;;;0.10;0.10;;;;;;;19.45;nan;100499.75;4981443;28;20293;-88
2023/08/17 06:06:01;;;;;;;0.10;0.10;;;;;;;;;;4977810;28;20122;-86
2023/08/17 06:08:27;;;;;;;0.10;0.10;;;;;;;19.45;nan;100522.06;4994339;28;20157;-86
2023/08/17 06:10:55;;;;;;;0.10;0.10;;;;;;;19.42;nan;100500.19;4976839;28;20101;-86
2023/08/17 06:13:21;;;;;;;0.10;0.10;;;;;;;;;;4970448;28;20046;-86
2023/08/17 06:15:47;;;;;;;0.10;0.10;;;;;;;19.45;nan;100511.34;4979970;28;20097;-86
2023/08/17 06:18:12;;;;;;;0.10;0.10;;;;;;;;;;4993870;28;20059;-86
2023/08/17 06:20:37;;;;;;;0.10;0.10;;;;;;;;;;4980333;28;20043;-86
2023/08/17 06:23:04;;;;;;;0.00;0.00;;;;;;;;;;4977852;28;20411;-86
2023/08/17 06:25:29;;;;;;;0.10;0.10;;;;;;;;;;4983454;28;20046;-86
2023/08/17 06:27:55;;;;;;;0.10;0.10;;;;;;;20.12;nan;100493.13;4983064;28;20039;-86
2023/08/17 06:30:20;;;;;;;0.10;0.10;;;;;;;;;;4972113;28;20206;-86
2023/08/17 06:32:52;;;;;;;0.10;0.10;;;;;;;;;;4968862;28;20525;-86
2023/08/17 06:35:17;;;;;;;0.00;0.00;;;;;;;;;;4963444;29;20295;-86
2023/08/17 06:37:43;;;;;;;0.10;0.10;;;;;;;;;;4981143;28;20524;-87
2023/08/17 06:40:09;;;;;;;0.10;0.10;;;;;;;20.49;nan;100512.09;4962184;28;20414;-86
2023/08/17 06:42:37;;;;;;;0.00;0.00;;;;;;;20.59;nan;100495.50;4967895;28;20046;-86
2023/08/17 06:45:06;;;;;;;0.10;0.10;;;;;;;20.67;nan;100503.31;4993560;28;20612;-86
2023/08/17 06:47:31;;;;;;;0.00;0.00;;;;;;;20.80;nan;100518.50;4974887;28;20117;-87
2023/08/17 06:49:57;;;;;;;0.10;0.10;;;;;;;;;;4974695;28;20089;-86
2023/08/17 06:52:22;;;;;;;0.10;0.10;;;;;;;;;;4969785;28;20482;-86
2023/08/17 06:54:48;;;;;;;0.10;0.10;;;;;;;;;;4977237;28;20040;-86
2023/08/17 06:57:13;;;;;;;0.00;0.00;;;;;;;;;;4960989;28;20039;-87
2023/08/17 06:59:38;;;;;;;0.10;0.10;;;;;;;;;;4963530;28;20047;-86
2023/08/17 07:02:04;;;;;;;0.00;0.00;;;;;;;;;;4974458;28;20413;-87
2023/08/17 07:04:29;;;;;;;0.10;0.10;;;;;;;;;;4971671;28;20042;-86
2023/08/17 07:06:55;;;;;;;0.00;0.00;;;;;;;21.67;nan;100506.94;4978754;28;20283;-87
2023/08/17 07:09:20;;;;;;;0.00;0.00;;;;;;;21.52;nan;100553.84;4970865;28;20110;-86
2023/08/17 07:11:46;;;;;;;0.10;0.10;;;;;;;;;;4979538;28;20045;-85
2023/08/17 07:14:12;;;;;;;0.10;0.10;;;;;;;;;;4981433;28;20035;-86
2023/08/17 07:16:37;;;;;;;0.10;0.10;;;;;;;21.67;nan;100540.03;4980983;28;20035;-86
2023/08/17 07:19:03;;;;;;;0.03;0.03;;;;;;;;;;4997134;28;20516;-86
2023/08/17 07:21:29;;;;;;;0.10;0.10;;;;;;;21.56;nan;100581.94;4978048;28;20039;-86
2023/08/17 07:23:54;;;;;;;0.10;0.10;;;;;;;;;;4977581;28;20042;-86
2023/08/17 07:26:20;;;;;;;0.00;0.00;;;;;;;;;;4980422;28;20042;-86
2023/08/17 07:28:45;;;;;;;0.00;0.00;;;;;;;;;;4978651;28;20894;-85
2023/08/17 07:31:11;;;;;;;0.00;0.00;;;;;;;21.87;nan;100557.81;4973294;28;20058;-86
2023/08/17 07:33:37;;;;;;;0.00;0.00;;;;;;;;;;4967347;28;20036;-85
2023/08/17 07:36:03;;;;;;;0.00;0.00;;;;;;;21.94;nan;100502.03;4963019;28;20046;-86
2023/08/17 07:38:28;;;;;;;0.00;0.00;;;;;;;;;;4974437;28;20035;-85
2023/08/17 07:40:55;;;;;;;0.00;0.00;;;;;;;22.02;nan;100497.16;4977890;28;20035;-86
2023/08/17 07:43:20;;;;;;;0.00;0.00;;;;;;;;;;4981782;28;20101;-86
2023/08/17 07:45:46;;;;;;;0.00;0.00;;;;;;;;;;4981294;28;20416;-85
2023/08/17 07:48:11;;;;;;;0.00;0.00;;;;;;;22.55;nan;100513.59;4980511;28;20039;-85
2023/08/17 07:50:36;;;;;;;0.00;0.00;;;;;;;;;;4965046;28;20492;-85
2023/08/17 07:53:02;;;;;;;0.00;0.00;;;;;;;;;;4961410;28;20048;-86
2023/08/17 07:55:27;;;;;;;0.00;0.00;;;;;;;22.78;nan;100531.69;4989837;28;20404;-85
2023/08/17 07:57:53;;;;;;;0.00;0.00;;;;;;;22.83;nan;100531.81;4981813;28;20055;-85
2023/08/17 08:00:18;;;;;;;;;;;;;;;22.88;nan;100545.41;4980345;28;20465;-85
2023/08/17 08:02:46;;;;;;;;;;;;;;;22.69;nan;100537.44;4977894;28;19914;-85
2023/08/17 08:05:14;;;;;;;;;;;;;;;22.74;nan;100544.81;4962006;28;20145;-86
2023/08/17 08:07:39;;;;;;;;;;;;;;;22.89;nan;100538.97;4960360;28;20027;-85
2023/08/17 08:10:05;;;;;;;;;;;;;;;23.49;nan;100551.44;4962904;28;19926;-85
2023/08/17 08:12:30;;;;;;;;;;;;;;;24.32;nan;100542.06;4974535;28;20426;-84
2023/08/17 08:14:55;;;;;;;;;;;;;;;24.67;nan;100551.06;4959335;28;20380;-83
2023/08/17 08:17:20;;;;;;;;;;;;;;;24.65;nan;100559.44;4963769;28;19922;-83
2023/08/17 08:19:46;;;;;;;;;;;;;;;24.55;nan;100551.13;4983115;28;19957;-84
2023/08/17 08:22:11;;;;;;;;;;;;;;;24.40;nan;100553.53;4979157;28;20010;-84
2023/08/17 08:24:39;;;;;;;;;;;;;;;24.04;nan;100558.25;4962448;29;19915;-83
2023/08/17 08:27:04;;;;;;;;;;;;;;;24.58;nan;100554.16;4962524;28;19969;-83
2023/08/17 08:29:29;;;;;;;;;;;;;;;25.29;nan;100550.16;4976760;28;19906;-82
2023/08/17 08:31:57;;;;;;;;;;;;;;;25.93;nan;100550.47;4970354;28;20173;-84
2023/08/17 08:34:22;;;;;;;0.00;0.00;;;;;;;26.87;nan;100534.88;4961875;28;19915;-83
2023/08/17 08:36:49;;;;;;;0.00;0.00;;;;;;;27.46;nan;100564.59;4961253;28;20046;-83
2023/08/17 08:39:15;;;;;;;0.00;0.00;;;;;;;27.87;nan;100564.81;4961445;28;20127;-83
2023/08/17 08:41:40;;;;;;;0.00;0.00;;;;;;;27.63;nan;100537.25;4961640;28;20072;-83
2023/08/17 08:44:05;;;;;;;0.00;0.00;;;;;;;;;;4970360;28;20030;-84
2023/08/17 08:46:33;;;;;;;0.00;0.00;;;;;;;;;;4977383;28;20043;-83
2023/08/17 08:48:58;;;;;;;0.00;0.00;;;;;;;;;;4969860;28;20278;-83
2023/08/17 08:51:28;;;;;;;0.00;0.00;;;;;;;;;;4995560;28;20035;-84
2023/08/17 08:53:58;;;;;;;0.00;0.00;;;;;;;;;;4982643;28;20043;-84
2023/08/17 08:56:24;;;;;;;0.00;0.00;;;;;;;28.76;nan;100542.97;5002164;28;20054;-84
2023/08/17 08:58:50;;;;;;;0.00;0.00;;;;;;;29.23;nan;100560.09;4976508;28;20405;-84
2023/08/17 09:01:19;;;;;;;0.00;0.00;;;;;;;29.68;nan;100559.19;4998198;28;20043;-84
2023/08/17 09:03:49;;;;;;;0.00;0.00;;;;;;;29.99;nan;100553.59;5000861;28;20038;-83
2023/08/17 09:06:16;;;;;;;0.00;0.00;;;;;;;30.59;nan;100570.69;4982578;28;20034;-84
2023/08/17 09:08:45;;;;;;;0.00;0.00;;;;;;;30.74;nan;100558.81;4982229;28;20062;-83
2023/08/17 09:11:11;;;;;;;0.00;0.00;;;;;;;30.79;nan;100547.84;4979036;28;20069;-83
2023/08/17 09:13:36;;;;;;;0.00;0.00;;;;;;;30.92;nan;100538.22;4981398;28;20138;-84
2023/08/17 09:16:01;;;;;;;0.00;0.00;;;;;;;31.52;nan;100560.56;4979503;28;20439;-85
2023/08/17 09:18:27;;;;;;;0.00;0.00;;;;;;;32.14;nan;100551.59;4962712;28;20477;-84
2023/08/17 09:20:54;;;;;;;0.00;0.00;;;;;;;32.32;nan;100548.03;4961608;28;20066;-84
2023/08/17 09:23:21;;;;;;;0.00;0.00;;;;;;;32.58;nan;100547.63;4960233;28;20043;-84
2023/08/17 09:25:49;;;;;;;0.00;0.00;;;;;;;33.12;nan;100548.13;4961617;28;20075;-83
2023/08/17 09:28:15;;;;;;;0.00;0.00;;;;;;;;;;4970975;28;20049;-84
2023/08/17 09:31:00;;;;;;;0.00;0.00;;;;;;;33.88;nan;100551.25;4968901;28;20040;-83
2023/08/17 09:33:29;;;;;;;0.00;0.00;;;;;;;33.90;nan;100485.94;4961056;28;20066;-84
2023/08/17 09:35:55;;;;;;;0.00;0.00;;;;;;;33.69;nan;100553.31;4959737;29;20513;-84
2023/08/17 09:38:21;;;;;;;0.00;0.00;;;;;;;33.75;nan;100538.38;4958466;28;20043;-84
2023/08/17 09:40:48;;;;;;;0.00;0.00;;;;;;;34.23;nan;100544.19;4957410;29;20171;-84
2023/08/17 09:43:18;;;;;;;0.00;0.00;;;;;;;34.65;nan;100550.31;4976024;28;20401;-84
2023/08/17 09:45:49;;;;;;;0.00;0.00;;;;;;;34.90;nan;100545.31;4970222;28;20084;-84
2023/08/17 09:48:19;;;;;;;0.00;0.00;;;;;;;35.02;nan;100537.28;4975972;28;20174;-84
2023/08/17 09:50:46;;;;;;;0.00;0.00;;;;;;;34.48;nan;100529.00;4967398;28;20171;-84
2023/08/17 09:53:15;;;;;;;0.00;0.00;;;;;;;;;;4994032;28;20035;-84
2023/08/17 09:55:45;;;;;;;0.00;0.00;;;;;;;34.52;nan;100500.94;4979277;28;20126;-84
2023/08/17 09:58:15;;;;;;;0.00;0.00;;;;;;;34.28;nan;100535.03;4975343;28;20408;-84
2023/08/17 10:00:49;;;;;;;0.00;0.00;;;;;;;34.26;nan;100515.31;4971602;28;20105;-84
2023/08/17 10:03:15;;;;;;;0.00;0.00;;;;;;;34.57;nan;100509.84;4979302;28;20039;-84
2023/08/17 10:05:43;;;;;;;0.00;0.00;;;;;;;34.86;nan;100520.38;4979925;28;20238;-84
2023/08/17 10:08:10;;;;;;;0.00;0.00;;;;;;;;;;4977655;28;20039;-84
2023/08/17 10:10:42;;;;;;;0.00;0.00;;;;;;;34.59;nan;100537.81;4995824;28;20039;-84
2023/08/17 10:13:13;;;;;;;0.00;0.00;;;;;;;35.13;nan;100537.84;4979557;28;20126;-84
2023/08/17 10:15:44;;;;;;;;;;;;;;;35.10;nan;100532.97;4974511;28;20043;-84
2023/08/17 10:18:16;;;;;;;0.00;0.00;;;;;;;35.57;nan;100541.56;4976250;28;19921;-84
2023/08/17 10:20:49;;;;;;;0.00;0.00;;;;;;;35.60;nan;100540.09;4978361;28;20420;-84
2023/08/17 10:23:18;;;;;;;0.00;0.00;;;;;;;35.10;nan;100533.78;4979938;28;20416;-84
2023/08/17 10:25:45;;;;;;;0.00;0.00;;;;;;;35.36;nan;100535.03;4978877;28;20055;-83
2023/08/17 10:28:12;;;;;;;0.00;0.00;;;;;;;35.26;nan;100470.16;4978671;28;20600;-84
2023/08/17 10:30:38;;;;;;;0.00;0.00;;;;;;;35.40;nan;100534.06;4979472;28;20419;-84
2023/08/17 10:33:05;;;;;;;0.00;0.00;;;;;;;;;;4970788;28;20035;-84
2023/08/17 10:35:31;;;;;;;0.00;0.00;;;;;;;;;;4967523;28;20042;-85
2023/08/17 10:37:58;;;;;;;0.00;0.00;;;;;;;;;;4969823;28;20045;-84
2023/08/17 10:40:35;;;;;;;0.00;0.00;;;;;;;35.98;nan;100523.03;4979209;28;20062;-84
2023/08/17 10:43:00;;;;;;;0.00;0.00;;;;;;;;;;4982211;28;20035;-85
2023/08/17 10:45:28;;;;;;;0.00;0.00;;;;;;;36.36;nan;100509.44;4981834;28;20446;-84
2023/08/17 10:48:09;;;;;;;0.00;0.00;;;;;;;36.77;nan;100524.59;4979528;28;20400;-84
2023/08/17 10:50:37;;;;;;;0.00;0.00;;;;;;;36.36;nan;100507.47;4964285;28;20118;-84
2023/08/17 10:53:11;;;;;;;0.00;0.00;;;;;;;36.88;nan;100506.56;4962682;28;20039;-84
2023/08/17 10:55:44;;;;;;;0.00;0.00;;;;;;;37.59;nan;100518.91;4960109;29;20038;-84
2023/08/17 10:58:10;;;;;;;0.00;0.00;;;;;;;37.71;nan;100510.72;4958829;28;20086;-84
2023/08/17 11:00:39;;;;;;;;;;;;;;;38.05;nan;100519.91;4960212;28;20039;-84
2023/08/17 11:03:05;;;;;;;;;;;;;;;38.21;nan;100517.31;4966228;28;20001;-84
2023/08/17 11:05:48;;;;;;;;;;;;;;;38.24;nan;100523.00;4971746;28;19952;-84
2023/08/17 11:08:29;;;;;;;;;;;;;;;38.88;nan;100521.69;4995153;28;20004;-84
2023/08/17 11:11:00;;;;;;;;;;;;;;;37.47;nan;100522.38;4971699;28;19914;-85
2023/08/17 11:13:30;;;;;;;;;;;;;;;37.32;nan;100520.19;4977122;28;19918;-84
2023/08/17 11:15:58;;;;;;;;;;;;;;;37.43;nan;100517.88;4978437;28;19921;-84
2023/08/17 11:18:24;;;;;;;;;;;;;;;37.36;nan;100521.94;4976321;28;19914;-85
2023/08/17 11:20:50;;;;;;;;;;;;;;;37.83;nan;100532.09;4969746;28;19969;-85
2023/08/17 11:23:15;;;;;;;;;;;;;;;38.32;nan;100529.56;4957914;28;20284;-84
2023/08/17 11:25:41;;;;;;;;;;;;;;;38.95;nan;100534.16;4959942;28;19962;-84
2023/08/17 11:28:07;;;;;;;;;;;;;;;38.76;nan;100521.69;4961685;28;19982;-84
2023/08/17 11:30:34;;;;;;;;;;;;;;;38.64;nan;100519.69;4970123;28;19918;-84
2023/08/17 11:32:59;;;;;;;;;;;;;;;38.69;nan;100521.44;4965127;28;19926;-84
2023/08/17 11:35:24;;;;;;;;;;;;;;;38.79;nan;100514.66;4962566;28;19914;-85
2023/08/17 11:37:50;;;;;;;;;;;;;;;39.11;nan;100512.16;4976357;28;20054;-84
2023/08/17 11:40:15;;;;;;;;;;;;;;;39.36;nan;100516.56;4961691;28;19921;-84
2023/08/17 11:42:42;;;;;;;;;;;;;;;39.96;nan;100510.47;4958967;28;19922;-84
2023/08/17 11:45:09;;;;;;;;;;;;;;;40.05;nan;100508.38;4964940;28;20380;-84
2023/08/17 11:47:41;;;;;;;;;;;;;;;39.79;nan;100511.56;4975027;28;20069;-85
2023/08/17 11:50:08;;;;;;;;;;;;;;;40.02;nan;100509.06;4964492;28;19937;-85
2023/08/17 11:52:33;;;;;;;;;;;;;;;40.06;nan;100518.28;4979609;28;19918;-84
2023/08/17 11:54:59;;;;;;;;;;;;;;;39.96;nan;100514.06;4979474;28;19921;-84
2023/08/17 11:57:27;;;;;;;;;;;;;;;39.37;nan;100520.16;4970145;28;19913;-85
2023/08/17 11:59:54;;;;;;;;;;;;;;;38.67;nan;100516.25;4977729;28;19941;-85
2023/08/17 12:02:20;;;;;;;;;;;;;;;38.19;nan;100514.91;4972879;28;19949;-84
2023/08/17 12:04:45;;;;;;;;;;;;;;;37.60;nan;100515.03;4973949;28;19925;-84
2023/08/17 12:07:11;;;;;;;;;;;;;;;37.39;nan;100510.25;4968270;28;19918;-84
2023/08/17 12:09:36;;;;;;;;;;;;;;;36.12;nan;100513.50;4976453;28;19918;-84
2023/08/17 12:12:01;;;;;;;;;;;;;;;;;;4960389;28;19919;-85
2023/08/17 12:14:28;;;;;;;;;;;;;;;35.33;nan;100524.63;4957813;28;19922;-84
2023/08/17 12:16:54;;;;;;;;;;;;;;;34.74;nan;100525.66;4955849;28;19915;-85
2023/08/17 12:19:20;;;;;;;;;;;;;;;33.73;nan;100526.88;4957935;28;19969;-84
2023/08/17 12:21:47;;;;;;;;;;;;;;;32.96;nan;100520.16;4967769;28;19918;-84
2023/08/17 12:24:19;;;;;;;;;;;;;;;32.75;nan;100523.28;4965495;28;20344;-84
2023/08/17 12:26:46;;;;;;;;;;;;;;;32.16;nan;100532.97;4977980;28;19920;-84
2023/08/17 12:29:11;;;;;;;;;;;;;;;31.66;nan;100530.59;4975830;28;19914;-84
2023/08/17 12:31:36;;;;;;;0.00;0.00;;;;;;;31.08;nan;100501.47;4971763;28;19921;-84
2023/08/17 12:34:03;;;;;;;0.00;0.00;;;;;;;;;;4957800;28;20122;-84
2023/08/17 12:36:29;;;;;;;0.00;0.00;;;;;;;30.05;nan;100536.91;4971270;28;20055;-84
2023/08/17 12:38:55;;;;;;;0.00;0.00;;;;;;;29.83;nan;100534.56;4960304;28;20039;-83
2023/08/17 12:41:22;;;;;;;0.00;0.00;;;;;;;29.81;nan;100492.34;4967301;28;20497;-83
2023/08/17 12:43:48;;;;;;;0.00;0.00;;;;;;;;;;4974285;28;20428;-83
2023/08/17 12:46:13;;;;;;;0.00;0.00;;;;;;;;;;4975495;28;20069;-83
2023/08/17 12:48:39;;;;;;;0.00;0.00;;;;;;;29.64;nan;100586.13;4971270;28;20291;-84
2023/08/17 12:51:04;;;;;;;0.00;0.00;;;;;;;29.59;nan;100531.66;4968321;28;20167;-83
2023/08/17 12:53:30;;;;;;;0.00;0.00;;;;;;;29.75;nan;100526.19;4977215;28;20464;-84
2023/08/17 12:55:56;;;;;;;0.00;0.00;;;;;;;29.76;nan;100517.72;4974736;28;20271;-83
2023/08/17 12:58:22;;;;;;;0.00;0.00;;;;;;;29.77;nan;100522.09;4978825;28;20111;-83
2023/08/17 13:00:49;;;;;;;0.00;0.00;;;;;;;29.97;nan;100480.25;4978995;28;20035;-83
2023/08/17 13:03:15;;;;;;;0.00;0.00;;;;;;;;;;4981377;28;20039;-83
2023/08/17 13:05:40;;;;;;;0.00;0.00;;;;;;;;;;4993093;28;20042;-84